createdAt,value
2018-09-27T00:03:59.979Z,14.43
2018-09-27T00:08:03.114Z,15.37
2018-09-27T00:12:06.056Z,17.80
2018-09-27T00:16:08.987Z,16.87
2018-09-27T00:20:12.102Z,17.57
2018-09-27T00:24:15.045Z,16.83
2018-09-27T00:28:18.139Z,17.70
2018-09-27T00:32:21.051Z,19.20
2018-09-27T00:36:24.160Z,19.17
2018-09-27T00:40:27.109Z,17.93
2018-09-27T00:44:30.212Z,18.60
2018-09-27T00:48:33.369Z,18.90
2018-09-27T00:52:36.617Z,19.80
2018-09-27T00:56:39.764Z,20.20
2018-09-27T01:00:42.663Z,19.43
2018-09-27T01:04:45.808Z,19.73
2018-09-27T01:08:48.743Z,19.30
2018-09-27T01:12:51.708Z,19.93
2018-09-27T01:16:54.799Z,20.47
2018-09-27T01:20:57.948Z,18.53
2018-09-27T01:25:00.827Z,19.13
2018-09-27T01:29:03.952Z,18.30
2018-09-27T01:33:07.035Z,20.80
2018-09-27T01:37:10.247Z,20.97
2018-09-27T01:41:13.359Z,21.77
2018-09-27T01:45:16.573Z,21.73
2018-09-27T01:49:19.708Z,19.43
2018-09-27T01:53:23.012Z,19.37
2018-09-27T01:57:26.091Z,20.07
2018-09-27T02:01:29.280Z,20.33
2018-09-27T02:05:32.376Z,19.43
2018-09-27T02:09:35.527Z,20.57
2018-09-27T02:13:38.605Z,19.57
2018-09-27T02:17:41.755Z,20.17
2018-09-27T02:21:44.827Z,22.37
2018-09-27T02:25:48.003Z,21.20
2018-09-27T02:29:51.079Z,22.33
2018-09-27T02:33:54.227Z,23.10
2018-09-27T02:37:57.928Z,23.40
2018-09-27T02:42:01.085Z,23.40
2018-09-27T02:46:04.191Z,22.70
2018-09-27T02:50:07.356Z,24.00
2018-09-27T02:54:10.608Z,25.03
2018-09-27T02:58:13.831Z,27.03
2018-09-27T03:02:16.908Z,29.13
2018-09-27T03:06:20.028Z,24.10
2018-09-27T03:10:23.131Z,26.60
2018-09-27T03:14:26.272Z,25.40
2018-09-27T03:18:29.355Z,25.60
2018-09-27T03:22:32.499Z,24.70
2018-09-27T03:26:35.584Z,26.27
2018-09-27T03:30:39.175Z,25.10
2018-09-27T03:34:42.284Z,27.50
2018-09-27T03:38:45.203Z,26.40
2018-09-27T03:42:48.380Z,27.20
2018-09-27T03:46:51.680Z,27.67
2018-09-27T03:50:54.876Z,25.80
2018-09-27T03:54:58.284Z,27.30
2018-09-27T03:59:02.795Z,28.43
2018-09-27T04:03:06.156Z,26.90
2018-09-27T04:07:09.219Z,26.17
2018-09-27T04:11:12.356Z,29.47
2018-09-27T04:15:15.448Z,29.00
2018-09-27T04:19:18.580Z,28.87
2018-09-27T04:23:23.012Z,28.93
2018-09-27T04:27:26.153Z,30.53
2018-09-27T04:31:29.259Z,31.77
2018-09-27T04:35:32.464Z,28.63
2018-09-27T04:39:35.550Z,30.50
2018-09-27T04:43:38.671Z,32.50
2018-09-27T04:47:41.748Z,31.27
2018-09-27T04:51:45.016Z,29.87
2018-09-27T04:55:48.241Z,30.27
2018-09-27T04:59:51.413Z,31.13
2018-09-27T05:03:54.488Z,32.50
2018-09-27T05:07:57.391Z,33.03
2018-09-27T05:12:00.503Z,32.97
2018-09-27T05:16:03.719Z,34.97
2018-09-27T05:20:06.744Z,33.87
2018-09-27T06:53:27.265Z,32.33
2018-09-27T07:11:12.824Z,26.50
2018-09-27T07:15:15.928Z,25.27
2018-09-27T07:19:19.083Z,23.57
2018-09-27T07:23:23.100Z,24.40
2018-09-27T07:27:26.263Z,24.83
2018-09-27T07:31:29.364Z,22.67
2018-09-27T07:35:32.840Z,24.17
2018-09-27T07:39:35.920Z,22.77
2018-09-27T07:43:39.051Z,22.23
2018-09-27T07:47:42.564Z,22.60
2018-09-27T07:51:45.727Z,22.20
2018-09-27T07:55:48.894Z,22.30
2018-09-27T07:59:52.387Z,21.30
2018-09-27T08:03:55.264Z,23.13
2018-09-27T08:07:59.095Z,22.57
2018-09-27T08:12:02.394Z,20.93
2018-09-27T08:16:05.840Z,21.40
2018-09-27T08:20:08.935Z,18.97
2018-09-27T08:24:12.256Z,18.93
2018-09-27T08:28:15.587Z,18.67
2018-09-27T08:32:18.761Z,18.50
2018-09-27T08:36:21.859Z,17.30
2018-09-27T08:40:25.028Z,17.83
2018-09-27T08:44:28.229Z,16.77
2018-09-27T08:48:31.322Z,18.80
2018-09-27T12:29:20.401Z,31.53
2018-09-27T13:48:38.468Z,14.10
2018-09-27T13:52:41.376Z,13.90
2018-09-27T13:56:44.334Z,10.90
2018-09-27T14:00:47.407Z,11.17
2018-09-27T14:04:50.535Z,11.37
2018-09-27T14:08:53.553Z,11.00
2018-09-27T14:30:59.057Z,13.37
2018-09-27T14:35:02.583Z,9.13
2018-09-27T14:39:06.578Z,8.23
2018-09-27T14:43:09.680Z,8.40
2018-09-27T14:47:12.599Z,9.00
2018-09-27T14:51:15.483Z,7.90
2018-09-27T14:55:19.205Z,8.20
2018-09-27T14:59:22.329Z,7.83
2018-09-27T15:03:25.496Z,8.57
2018-09-27T15:07:28.374Z,7.80
2018-09-27T15:11:31.303Z,8.57
2018-09-27T15:15:34.415Z,8.83
2018-09-27T15:19:37.580Z,8.30
2018-09-27T15:23:40.769Z,8.73
2018-09-27T15:27:43.611Z,8.97
2018-09-27T15:31:46.594Z,9.63
2018-09-27T15:35:49.763Z,10.27
2018-09-27T15:39:52.905Z,9.73
2018-09-27T15:43:55.830Z,9.70
2018-09-27T15:47:58.739Z,13.40
2018-09-27T15:52:01.880Z,9.90
2018-09-27T15:56:04.992Z,11.17
2018-09-27T16:00:08.264Z,11.80
2018-09-27T16:04:11.189Z,12.37
2018-09-27T16:08:14.303Z,11.57
2018-09-27T16:12:17.207Z,12.67
2018-09-27T16:16:20.389Z,12.40
2018-09-27T16:20:23.521Z,14.63
2018-09-27T16:28:47.852Z,13.70
2018-09-27T16:32:50.959Z,14.67
2018-09-27T16:36:54.180Z,13.10
2018-09-27T16:40:57.311Z,13.90
2018-09-27T16:45:00.235Z,13.37
2018-09-27T16:49:03.750Z,12.43
2018-09-27T16:53:08.765Z,12.03
2018-09-27T16:57:11.635Z,11.77
2018-09-27T17:01:14.583Z,12.40
2018-09-27T17:05:17.683Z,13.13
2018-09-27T17:09:20.631Z,12.60
2018-09-27T17:13:23.507Z,13.10
2018-09-27T17:17:26.633Z,12.83
2018-09-27T17:21:29.748Z,13.60
2018-09-27T17:25:32.660Z,12.37
2018-09-27T17:29:35.786Z,11.87
2018-09-27T17:33:38.880Z,12.10
2018-09-27T17:37:42.136Z,12.50
2018-09-27T17:41:45.249Z,12.40
2018-09-27T17:45:49.397Z,12.40
2018-09-27T17:49:52.585Z,13.03
2018-09-27T17:53:56.260Z,12.70
2018-09-27T17:57:59.670Z,11.90
2018-09-27T18:02:02.731Z,11.47
2018-09-27T18:06:06.393Z,11.60
2018-09-27T18:10:10.655Z,11.83
2018-09-27T18:14:15.061Z,13.30
2018-09-27T18:18:18.387Z,11.80
2018-09-27T18:22:22.651Z,14.03
2018-09-27T18:26:25.820Z,12.87
2018-09-27T18:30:30.678Z,13.10
2018-09-27T18:34:34.621Z,11.30
2018-09-27T18:38:39.586Z,12.20
2018-09-27T18:42:42.989Z,11.77
2018-09-27T18:46:46.548Z,11.90
2018-09-27T18:50:50.635Z,13.20
2018-09-27T18:54:54.185Z,13.23
2018-09-27T18:58:57.646Z,12.80
2018-09-27T19:03:01.179Z,14.13
2018-09-27T19:07:04.540Z,12.60
2018-09-27T19:11:08.053Z,12.10
2018-09-27T19:15:12.384Z,10.50
2018-09-27T19:19:16.251Z,11.67
2018-09-27T19:23:20.109Z,11.03
2018-09-27T19:27:23.682Z,10.93
2018-09-27T19:31:27.046Z,11.03
2018-09-27T19:35:30.537Z,10.10
2018-09-27T19:39:33.852Z,9.93
2018-09-27T19:43:38.824Z,9.70
2018-09-27T19:47:42.846Z,9.60
2018-09-27T19:51:46.311Z,9.23
2018-09-27T19:55:50.034Z,9.17
2018-09-27T19:59:53.599Z,8.37
2018-09-27T20:03:57.791Z,8.53
2018-09-27T20:08:01.146Z,8.47
2018-09-27T20:12:05.536Z,8.63
2018-09-27T20:16:08.826Z,9.73
2018-09-27T20:20:13.119Z,9.90
2018-09-27T20:24:17.397Z,10.70
2018-09-27T20:28:20.842Z,10.90
2018-09-27T20:32:23.828Z,10.67
2018-09-27T20:36:27.939Z,13.20
2018-09-27T20:40:30.962Z,13.43
2018-09-27T20:44:37.765Z,15.40
2018-09-27T20:52:51.371Z,15.00
2018-09-27T20:56:54.528Z,16.07
2018-09-27T21:00:57.660Z,16.90
2018-09-27T21:05:00.584Z,15.43
2018-09-27T21:09:05.064Z,19.67
2018-09-27T21:13:08.344Z,19.47
2018-09-27T21:17:11.420Z,19.83
2018-09-27T21:21:14.347Z,22.10
2018-09-27T21:25:17.456Z,22.00
2018-09-27T21:29:22.639Z,20.10
2018-09-27T21:33:25.504Z,21.60
2018-09-27T21:37:28.755Z,21.57
2018-09-27T21:41:31.631Z,22.10
2018-09-27T21:45:34.772Z,24.47
2018-09-27T21:49:37.856Z,23.50
2018-09-27T21:53:40.777Z,26.17
2018-09-27T21:57:43.646Z,28.47
2018-09-27T22:01:46.783Z,33.00
2018-09-27T22:05:49.703Z,31.00
2018-09-27T22:09:52.971Z,31.70
2018-09-27T22:13:56.192Z,31.80
2018-09-27T22:17:59.344Z,27.20
2018-09-27T22:22:02.423Z,28.60
2018-09-27T22:26:06.088Z,28.73
2018-09-27T22:30:09.452Z,25.50
2018-09-27T22:34:12.583Z,28.90
2018-09-27T22:38:15.487Z,24.90
2018-09-27T22:42:18.631Z,24.00
2018-09-27T22:46:21.507Z,23.93
2018-09-27T22:50:24.435Z,24.13
2018-09-27T22:54:27.532Z,24.50
2018-09-27T22:58:30.444Z,24.30
2018-09-27T23:02:33.328Z,25.30
2018-09-27T23:06:36.455Z,26.57
2018-09-27T23:10:39.535Z,27.57
2018-09-27T23:14:42.568Z,28.27
2018-09-27T23:18:45.647Z,30.20
2018-09-27T23:22:48.809Z,31.37
2018-09-27T23:26:51.958Z,31.83
2018-09-27T23:30:56.009Z,34.30
2018-09-27T23:34:59.064Z,35.63
2018-09-27T23:39:02.036Z,35.77
2018-09-27T23:43:05.123Z,40.07
2018-09-27T23:47:08.328Z,44.77
2018-09-27T23:51:11.195Z,44.50
2018-09-27T23:55:14.134Z,48.20
2018-09-27T23:59:17.011Z,43.17
